Hauptseite
METAR-TAF:

METAR-TAF

Flughäfen :

Dallas/Fort Worth International Airport

Dallas / Fort Worth, Texas, Vereinigte Staaten

Breite: 32-53-49N, Länge: 097-01-19W, Höhe: 183 m

Beobachtung

Neuester Wetterbericht von vor 39 Minuten, um 04:53 UTC
Wind 7 kt aus Süd/Südost
Temperatur 30°C
Luftfeuchtigkeit 62%
Luftdruck 1012 hPa
Sichtweite: 16.1 km
Himmel klar

METAR: KDFW 250453Z 15007KT 10SM CLR 30/22 A2989 RMK AO2 SLP110 T03000222

Zeit: 00:32 (05:32 UTC)

Prognose

Neuester Wetterbericht von vor 2 Stunden und 47 Minuten, um 02:45 UTC
Gültige Prognose vom 25 um 03 UTC bis 26 um 06 UTC
Wind 9 kt aus Süd
Sichtweite: 10 km
Leicht bewölkt in der Höhe von 6000 ft

TAF: KDFW 250245Z 2503/2606 17009KT P6SM FEW060

Wetterbeobachtungen und Prognosen von mehr als 4000 Flughäfen (METAR und TAF Bericht).

Die verfügbaren Stationen werden durch gelbe und rote Markierungen auf der Karte dargestellt.

Führen Sie die Maus auf sie, um den Namen der Station zu sehen.

Darauf klicken, um die Beobachtung von Wetterbeobachtungen und Prognosen zu sehen.

Um die Karte zu ändern : klicken Sie auf den grünen Tasten mit einem schwarzen Kreuz Zum Vergrößern, auf den grünen Button mit einem Gedankenstrich zu verkleinern, oder auf die grünen Pfeile für benachbarte Karten.


METAR-TAF: